createdAt,value
2022-10-29T00:00:55.661Z,99122.09
2022-10-29T00:03:23.251Z,99105.28
2022-10-29T00:06:06.210Z,99116.16
2022-10-29T00:08:35.777Z,99106.66
2022-10-29T00:11:08.849Z,99116.97
2022-10-29T00:13:36.733Z,99112.91
2022-10-29T00:16:09.753Z,99122.66
2022-10-29T00:18:37.334Z,99089.03
2022-10-29T00:21:06.354Z,99110.25
2022-10-29T00:23:33.571Z,99120.00
2022-10-29T00:26:02.013Z,99117.84
2022-10-29T00:28:29.364Z,99113.25
2022-10-29T00:30:56.288Z,99107.78
2022-10-29T00:33:23.306Z,99111.91
2022-10-29T00:35:58.605Z,99102.16
2022-10-29T00:38:26.700Z,99109.22
2022-10-29T00:40:55.582Z,99096.19
2022-10-29T00:43:24.713Z,99098.38
2022-10-29T00:45:56.972Z,99099.47
2022-10-29T00:48:27.547Z,99088.84
2022-10-29T00:50:56.719Z,99073.06
2022-10-29T00:53:27.290Z,99105.03
2022-10-29T00:55:54.343Z,99090.50
2022-10-29T00:58:21.978Z,99093.75
2022-10-29T01:00:48.954Z,99082.66
2022-10-29T01:03:16.085Z,99085.38
2022-10-29T01:05:45.509Z,99098.09
2022-10-29T01:08:14.204Z,99082.13
2022-10-29T01:10:41.047Z,99079.97
2022-10-29T01:13:42.965Z,99075.31
2022-10-29T01:16:09.946Z,99065.00
2022-10-29T01:18:44.370Z,99057.94
2022-10-29T01:21:29.748Z,99057.94
2022-10-29T01:24:08.719Z,99054.97
2022-10-29T01:27:05.340Z,99058.44
2022-10-29T01:29:54.121Z,99053.28
2022-10-29T01:32:20.966Z,99044.28
2022-10-29T01:35:06.205Z,99044.56
2022-10-29T01:37:53.487Z,99052.66
2022-10-29T01:40:23.213Z,99035.06
2022-10-29T01:42:58.040Z,99041.31
2022-10-29T01:45:29.726Z,99039.69
2022-10-29T01:48:02.357Z,99022.88
2022-10-29T01:50:30.091Z,99027.75
2022-10-29T01:52:57.684Z,99020.69
2022-10-29T01:55:30.659Z,99030.69
2022-10-29T01:57:57.846Z,99030.41
2022-10-29T02:00:25.745Z,99030.94
2022-10-29T02:03:08.254Z,99018.22
2022-10-29T02:05:37.423Z,99022.00
2022-10-29T02:08:25.816Z,99015.22
2022-10-29T02:11:07.259Z,99015.22
2022-10-29T02:14:03.289Z,99011.44
2022-10-29T02:16:31.866Z,99009.25
2022-10-29T02:19:00.113Z,99007.38
2022-10-29T02:21:27.195Z,99007.59
2022-10-29T02:23:54.085Z,99002.53
2022-10-29T02:26:21.963Z,98987.31
2022-10-29T02:28:48.927Z,98996.25
2022-10-29T02:31:15.889Z,98994.06
2022-10-29T02:33:42.813Z,98981.06
2022-10-29T02:36:10.063Z,98988.91
2022-10-29T02:38:37.172Z,98986.47
2022-10-29T02:41:04.190Z,98988.09
2022-10-29T02:43:31.179Z,98991.06
2022-10-29T02:46:19.505Z,98984.59
2022-10-29T02:48:47.369Z,98980.25
2022-10-29T02:51:15.239Z,98982.41
2022-10-29T02:53:42.572Z,98976.47
2022-10-29T02:56:10.036Z,98964.25
2022-10-29T02:58:37.671Z,98988.66
2022-10-29T03:01:05.342Z,98981.09
2022-10-29T03:03:32.461Z,98982.78
2022-10-29T03:05:59.392Z,98963.84
2022-10-29T03:08:27.202Z,98976.59
2022-10-29T03:10:55.427Z,98967.16
2022-10-29T03:13:22.314Z,98965.28
2022-10-29T03:15:49.211Z,98961.78
2022-10-29T03:18:16.185Z,98960.44
2022-10-29T03:20:45.545Z,98960.19
2022-10-29T03:23:13.372Z,98946.41
2022-10-29T03:25:40.455Z,98943.44
2022-10-29T03:28:07.500Z,98948.59
2022-10-29T03:30:34.467Z,98960.22
2022-10-29T03:33:01.342Z,98938.56
2022-10-29T03:35:28.298Z,98938.56
2022-10-29T03:37:55.229Z,98910.91
2022-10-29T03:40:22.131Z,98921.28
2022-10-29T03:42:48.980Z,98931.84
2022-10-29T03:45:16.215Z,98925.06
2022-10-29T03:47:43.218Z,98929.13
2022-10-29T03:50:10.747Z,98918.31
2022-10-29T03:52:37.647Z,98933.47
2022-10-29T03:55:05.786Z,98908.03
2022-10-29T03:57:32.946Z,98913.72
2022-10-29T04:00:00.894Z,98919.94
2022-10-29T04:02:28.071Z,98907.47
2022-10-29T04:04:55.092Z,98906.41
2022-10-29T04:07:22.043Z,98906.13
2022-10-29T04:09:49.027Z,98893.94
2022-10-29T04:12:15.889Z,98888.81
2022-10-29T04:14:45.597Z,98893.44
2022-10-29T04:17:13.457Z,98889.13
2022-10-29T04:19:40.940Z,98889.66
2022-10-29T04:30:28.629Z,98863.69
2022-10-29T04:32:59.982Z,98868.56
2022-10-29T04:35:28.421Z,98866.13
2022-10-29T04:37:55.643Z,98848.78
2022-10-29T04:40:24.693Z,98850.69
2022-10-29T04:42:51.714Z,98839.84
2022-10-29T04:45:18.867Z,98843.63
2022-10-29T04:47:46.071Z,98832.53
2022-10-29T04:50:13.495Z,98845.50
2022-10-29T04:52:40.447Z,98844.97
2022-10-29T04:55:07.694Z,98839.81
2022-10-29T04:57:34.592Z,98825.47
2022-10-29T05:00:01.529Z,98828.19
2022-10-29T05:02:28.496Z,98813.84
2022-10-29T05:04:55.345Z,98821.69
2022-10-29T05:07:22.280Z,98834.16
2022-10-29T05:09:49.231Z,98820.38
2022-10-29T05:12:16.200Z,98813.06
2022-10-29T05:14:43.156Z,98829.03
2022-10-29T05:17:10.101Z,98833.91
2022-10-29T05:19:37.030Z,98802.75
2022-10-29T05:22:04.218Z,98814.97
2022-10-29T05:24:31.299Z,98826.88
2022-10-29T05:26:58.306Z,98827.69
2022-10-29T05:29:25.316Z,98814.69
2022-10-29T05:31:54.678Z,98806.56
2022-10-29T05:34:21.730Z,98803.84
2022-10-29T05:36:49.264Z,98809.00
2022-10-29T05:39:16.403Z,98809.25
2022-10-29T05:41:43.340Z,98800.59
2022-10-29T05:44:10.229Z,98806.31
2022-10-29T05:46:37.375Z,98795.19
2022-10-29T05:49:04.670Z,98797.63
2022-10-29T05:51:31.655Z,98799.00
2022-10-29T05:53:58.662Z,98796.56
2022-10-29T05:56:25.692Z,98796.00
2022-10-29T05:58:52.737Z,98797.34
2022-10-29T06:01:21.122Z,98787.88
2022-10-29T06:03:48.136Z,98794.66
2022-10-29T06:06:15.113Z,98768.66
2022-10-29T06:08:42.147Z,98777.84
2022-10-29T06:11:09.107Z,98775.38
2022-10-29T06:13:36.188Z,98776.47
2022-10-29T06:16:03.317Z,98766.16
2022-10-29T06:18:30.470Z,98767.50
2022-10-29T06:21:05.684Z,98774.56
2022-10-29T06:23:32.978Z,98765.88
2022-10-29T06:26:01.053Z,98758.31
2022-10-29T06:28:33.586Z,98768.59
2022-10-29T06:31:02.009Z,98756.97
2022-10-29T06:33:29.023Z,98745.88
2022-10-29T06:36:00.566Z,98752.34
2022-10-29T06:38:27.576Z,98753.16
2022-10-29T06:40:54.570Z,98749.38
2022-10-29T06:43:23.654Z,98750.47
2022-10-29T06:45:50.972Z,98751.28
2022-10-29T06:48:26.349Z,98745.84
2022-10-29T06:50:59.367Z,98751.56
2022-10-29T06:53:27.943Z,98745.31
2022-10-29T06:55:54.930Z,98726.09
2022-10-29T06:58:21.822Z,98735.56
2022-10-29T07:00:49.269Z,98722.56
2022-10-29T07:03:18.712Z,98733.69
2022-10-29T07:05:46.735Z,98715.53
2022-10-29T07:08:13.776Z,98714.97
2022-10-29T07:10:41.365Z,98719.56
2022-10-29T07:13:08.295Z,98713.34
2022-10-29T07:15:35.227Z,98722.81
2022-10-29T07:18:04.812Z,98713.06
2022-10-29T07:20:34.861Z,98710.38
2022-10-29T07:23:01.897Z,98709.03
2022-10-29T07:25:29.844Z,98711.72
2022-10-29T07:28:06.471Z,98692.22
2022-10-29T07:30:34.748Z,98706.56
2022-10-29T07:33:02.194Z,98682.44
2022-10-29T07:35:29.444Z,98678.91
2022-10-29T07:38:09.044Z,98681.03
2022-10-29T07:40:39.313Z,98677.22
2022-10-29T07:43:06.644Z,98669.38
2022-10-29T07:45:35.130Z,98669.66
2022-10-29T07:48:04.340Z,98681.03
2022-10-29T07:50:32.290Z,98641.78
2022-10-29T07:53:00.840Z,98658.25
2022-10-29T07:58:02.553Z,98660.16
2022-10-29T08:00:33.530Z,98649.31
2022-10-29T08:03:06.757Z,98645.25
2022-10-29T08:05:34.014Z,98631.19
2022-10-29T08:08:01.296Z,98635.22
2022-10-29T08:10:30.510Z,98644.72
2022-10-29T08:13:02.849Z,98649.06
2022-10-29T08:15:31.846Z,98651.53
2022-10-29T08:17:59.384Z,98639.34
2022-10-29T08:20:28.351Z,98645.56
2022-10-29T08:22:55.931Z,98643.91
2022-10-29T08:25:26.511Z,98632.03
2022-10-29T08:28:06.081Z,98601.16
2022-10-29T08:30:36.419Z,98585.75
2022-10-29T08:33:04.763Z,98611.47
2022-10-29T08:35:32.932Z,98617.13
2022-10-29T08:38:00.224Z,98621.75
2022-10-29T08:40:29.887Z,98614.13
2022-10-29T08:43:34.734Z,98593.88
2022-10-29T08:46:04.327Z,98607.38
2022-10-29T08:48:49.676Z,98594.13
2022-10-29T08:51:39.063Z,98600.06
2022-10-29T08:57:19.623Z,98605.75
2022-10-29T09:02:40.605Z,98585.75
2022-10-29T09:05:15.043Z,98566.50
2022-10-29T09:08:25.848Z,98564.06
2022-10-29T09:11:25.164Z,98557.28
2022-10-29T09:14:13.068Z,98537.22
2022-10-29T09:16:43.729Z,98538.28
2022-10-29T09:19:32.148Z,98542.03
2022-10-29T09:22:20.639Z,98553.69
2022-10-29T09:25:06.593Z,98539.59
2022-10-29T09:28:13.561Z,98538.84
2022-10-29T09:31:11.429Z,98515.28
2022-10-29T09:33:40.308Z,98521.81
2022-10-29T09:36:20.900Z,98515.84
2022-10-29T09:38:59.431Z,98505.56
2022-10-29T09:41:32.460Z,98521.25
2022-10-29T09:44:31.018Z,98506.03
2022-10-29T09:47:19.382Z,98497.34
2022-10-29T09:49:52.020Z,98501.16
2022-10-29T09:52:21.142Z,98489.31
2022-10-29T09:54:53.216Z,98508.47
2022-10-29T09:57:27.143Z,98501.16
2022-10-29T09:59:58.437Z,98490.31
2022-10-29T10:02:42.667Z,98491.13
2022-10-29T10:05:12.754Z,98484.34
2022-10-29T10:07:42.934Z,98485.22
2022-10-29T10:10:24.225Z,98479.50
2022-10-29T10:12:51.365Z,98464.91
2022-10-29T10:15:30.558Z,98475.19
2022-10-29T10:18:07.340Z,98473.56
2022-10-29T10:20:38.434Z,98464.63
2022-10-29T10:23:27.392Z,98461.09
2022-10-29T10:26:00.422Z,98471.94
2022-10-29T10:28:35.751Z,98438.63
2022-10-29T10:31:14.830Z,98449.47
2022-10-29T10:33:51.144Z,98450.22
2022-10-29T10:36:22.366Z,98441.78
2022-10-29T10:38:52.798Z,98428.78
2022-10-29T10:41:29.863Z,98414.63
2022-10-29T10:44:04.130Z,98413.38
2022-10-29T10:46:41.175Z,98401.41
2022-10-29T10:49:17.246Z,98417.03
2022-10-29T10:51:55.942Z,98407.28
2022-10-29T10:54:42.191Z,98382.09
2022-10-29T10:57:24.710Z,98397.00
2022-10-29T11:00:39.645Z,98397.00
2022-10-29T11:03:40.858Z,98397.28
2022-10-29T11:06:30.909Z,98389.94
2022-10-29T11:09:43.292Z,98385.88
2022-10-29T11:12:45.518Z,98379.66
2022-10-29T11:15:32.524Z,98364.34
2022-10-29T11:18:19.056Z,98371.75
2022-10-29T11:21:14.525Z,98368.00
2022-10-29T11:23:42.925Z,98365.25
2022-10-29T11:26:19.534Z,98360.41
2022-10-29T11:29:00.875Z,98362.84
2022-10-29T11:31:47.353Z,98360.41
2022-10-29T11:34:23.897Z,98365.03
2022-10-29T11:37:17.154Z,98355.28
2022-10-29T11:39:55.072Z,98349.13
2022-10-29T11:42:31.184Z,98358.28
2022-10-29T11:45:02.464Z,98341.28
2022-10-29T11:47:39.035Z,98348.25
2022-10-29T11:50:52.397Z,98338.47
2022-10-29T11:53:55.876Z,98337.38
2022-10-29T11:56:50.101Z,98327.91
2022-10-29T11:59:42.811Z,98329.78
2022-10-29T12:02:16.971Z,98331.13
2022-10-29T12:05:37.238Z,98324.44
2022-10-29T12:08:26.448Z,98322.25
2022-10-29T12:11:13.847Z,98315.44
2022-10-29T12:13:56.295Z,98320.34
2022-10-29T12:16:32.253Z,98319.84
2022-10-29T12:19:30.185Z,98313.38
2022-10-29T12:21:59.809Z,98310.44
2022-10-29T12:24:42.518Z,98308.00
2022-10-29T12:27:16.117Z,98306.41
2022-10-29T12:29:47.481Z,98304.22
2022-10-29T12:32:41.333Z,98303.72
2022-10-29T12:35:16.769Z,98311.00
2022-10-29T12:38:13.934Z,98280.78
2022-10-29T12:40:52.471Z,98315.63
2022-10-29T12:43:27.129Z,98297.50
2022-10-29T12:46:19.929Z,98290.16
2022-10-29T12:49:12.689Z,98278.25
2022-10-29T12:51:54.317Z,98261.53
2022-10-29T12:54:31.126Z,98270.47
2022-10-29T12:57:14.342Z,98278.00
2022-10-29T13:00:19.118Z,98274.72
2022-10-29T13:02:46.847Z,98249.09
2022-10-29T13:05:16.382Z,98265.84
2022-10-29T13:07:54.556Z,98268.25
2022-10-29T13:10:26.797Z,98263.13
2022-10-29T13:12:59.866Z,98259.88
2022-10-29T13:15:32.941Z,98239.59
2022-10-29T13:18:18.011Z,98258.56
2022-10-29T13:20:51.868Z,98253.72
2022-10-29T13:23:21.876Z,98233.66
2022-10-29T13:25:58.446Z,98220.53
2022-10-29T13:28:28.029Z,98220.13
2022-10-29T13:31:06.624Z,98229.56
2022-10-29T13:33:33.618Z,98226.84
2022-10-29T13:36:29.776Z,98211.25
2022-10-29T13:39:06.826Z,98213.59
2022-10-29T13:41:50.295Z,98219.31
2022-10-29T13:44:22.868Z,98221.22
2022-10-29T13:46:53.149Z,98212.56
2022-10-29T13:49:44.217Z,98202.59
2022-10-29T13:52:22.702Z,98177.41
2022-10-29T13:54:49.616Z,98190.84
2022-10-29T13:57:27.625Z,98217.91
2022-10-29T14:00:13.149Z,98180.00
2022-10-29T14:02:43.538Z,98177.59
2022-10-29T14:05:28.818Z,98179.47
2022-10-29T14:08:21.954Z,98172.97
2022-10-29T14:11:02.808Z,98173.31
2022-10-29T14:14:05.121Z,98164.84
2022-10-29T14:16:33.913Z,98175.44
2022-10-29T14:19:15.177Z,98172.47
2022-10-29T14:21:51.085Z,98156.78
2022-10-29T14:24:19.006Z,98158.81
2022-10-29T14:26:46.257Z,98157.38
2022-10-29T14:29:30.816Z,98124.78
2022-10-29T14:32:20.571Z,98156.78
2022-10-29T14:34:51.948Z,98116.66
2022-10-29T14:37:51.271Z,98115.72
2022-10-29T14:40:23.349Z,98095.09
2022-10-29T14:42:59.755Z,98120.78
2022-10-29T14:45:30.849Z,98105.81
2022-10-29T14:48:02.238Z,98128.69
2022-10-29T14:50:34.898Z,98120.25
2022-10-29T14:53:33.135Z,98115.66
2022-10-29T14:56:18.393Z,98106.66
2022-10-29T14:58:46.325Z,98104.81
2022-10-29T15:01:17.104Z,98107.22
2022-10-29T15:03:47.473Z,98083.28
2022-10-29T15:06:30.071Z,98099.41
2022-10-29T15:09:06.880Z,98088.84
2022-10-29T15:11:40.093Z,98084.75
2022-10-29T15:14:32.688Z,98068.72
2022-10-29T15:17:00.972Z,98077.44
2022-10-29T15:19:28.549Z,98088.28
2022-10-29T15:21:55.504Z,98069.38
2022-10-29T15:24:24.475Z,98050.66
2022-10-29T15:26:59.285Z,98053.88
2022-10-29T15:29:34.049Z,98036.91
2022-10-29T15:32:02.643Z,98041.22
2022-10-29T15:34:36.775Z,98032.00
2022-10-29T15:37:19.122Z,98038.22
2022-10-29T15:40:17.082Z,98031.03
2022-10-29T15:42:48.994Z,98046.78
2022-10-29T15:45:22.014Z,98027.81
2022-10-29T15:48:16.069Z,98029.38
2022-10-29T15:50:45.090Z,98029.38
2022-10-29T15:53:15.298Z,98017.78
2022-10-29T15:55:43.240Z,98010.75
2022-10-29T15:58:19.638Z,98020.41
2022-10-29T16:00:46.714Z,98006.94
2022-10-29T16:03:22.833Z,98005.28
2022-10-29T16:05:53.969Z,98006.38
2022-10-29T16:08:33.093Z,97991.59
2022-10-29T16:11:03.271Z,97996.13
2022-10-29T16:13:31.175Z,97993.13
2022-10-29T16:15:58.152Z,97982.38
2022-10-29T16:18:25.121Z,97988.50
2022-10-29T16:21:03.097Z,97975.63
2022-10-29T16:23:36.853Z,97986.38
2022-10-29T16:26:04.756Z,97991.06
2022-10-29T16:28:31.854Z,97971.03
2022-10-29T16:30:59.688Z,97980.88
2022-10-29T16:33:27.591Z,97976.66
2022-10-29T16:35:54.757Z,97964.81
2022-10-29T16:38:21.709Z,97963.91
2022-10-29T16:40:51.708Z,97946.13
2022-10-29T16:43:18.778Z,97953.81
2022-10-29T16:45:45.783Z,97968.16
2022-10-29T16:48:18.976Z,97961.13
2022-10-29T16:50:46.004Z,97945.75
2022-10-29T16:53:13.015Z,97940.25
2022-10-29T16:55:44.115Z,97914.16
2022-10-29T16:58:16.216Z,97934.59
2022-10-29T17:00:43.911Z,97935.09
2022-10-29T17:03:12.992Z,97930.47
2022-10-29T17:05:42.693Z,97921.25
2022-10-29T17:09:00.748Z,97920.16
2022-10-29T17:11:36.795Z,97914.53
2022-10-29T17:14:06.053Z,97885.25
2022-10-29T17:16:41.818Z,97888.88
2022-10-29T17:19:11.138Z,97884.88
2022-10-29T17:21:46.909Z,97890.59
2022-10-29T17:24:16.306Z,97888.09
2022-10-29T17:26:43.289Z,97893.13
2022-10-29T17:29:10.401Z,97871.25
2022-10-29T17:31:42.948Z,97874.75
2022-10-29T17:34:10.902Z,97864.72
2022-10-29T17:36:42.871Z,97875.78
2022-10-29T17:39:10.464Z,97869.56
2022-10-29T17:41:42.108Z,97873.66
2022-10-29T17:44:15.975Z,97848.97
2022-10-29T17:46:55.833Z,97827.50
2022-10-29T17:49:23.774Z,97831.72
2022-10-29T17:51:57.832Z,97841.16
2022-10-29T17:54:45.279Z,97824.41
2022-10-29T17:57:46.656Z,97825.78
2022-10-29T18:00:14.184Z,97827.91
2022-10-29T18:03:07.219Z,97815.69
2022-10-29T18:05:37.348Z,97809.25
2022-10-29T18:08:04.331Z,97800.03
2022-10-29T18:10:35.033Z,97793.41
2022-10-29T18:13:02.424Z,97799.22
2022-10-29T18:15:54.803Z,97791.31
2022-10-29T18:18:21.749Z,97783.06
2022-10-29T18:20:48.754Z,97794.59
2022-10-29T18:23:15.905Z,97773.53
2022-10-29T18:25:43.092Z,97757.19
2022-10-29T18:28:10.188Z,97761.69
2022-10-29T18:30:37.859Z,97779.75
2022-10-29T18:33:09.052Z,97757.28
2022-10-29T18:35:49.363Z,97754.09
2022-10-29T18:38:16.518Z,97757.28
2022-10-29T18:40:43.940Z,97755.69
2022-10-29T18:43:12.519Z,97753.47
2022-10-29T18:45:43.239Z,97744.84
2022-10-29T18:48:12.824Z,97727.91
2022-10-29T18:50:44.054Z,97733.81
2022-10-29T18:53:11.292Z,97749.97
2022-10-29T18:55:42.547Z,97715.88
2022-10-29T18:58:09.750Z,97724.00
2022-10-29T19:00:36.740Z,97725.59
2022-10-29T19:03:04.026Z,97713.06
2022-10-29T19:05:37.583Z,97726.41
2022-10-29T19:08:06.904Z,97726.41
2022-10-29T19:10:44.611Z,97734.22
2022-10-29T19:13:11.945Z,97728.00
2022-10-29T19:15:42.448Z,97725.09
2022-10-29T19:18:09.526Z,97711.56
2022-10-29T19:20:36.879Z,97693.81
2022-10-29T19:23:04.627Z,97710.97
2022-10-29T19:25:42.851Z,97700.53
2022-10-29T19:28:09.805Z,97727.69
2022-10-29T19:30:44.798Z,97690.50
2022-10-29T19:33:12.125Z,97691.69
2022-10-29T19:35:48.681Z,97697.59
2022-10-29T19:38:15.908Z,97693.69
2022-10-29T19:40:45.143Z,97702.72
2022-10-29T19:43:12.163Z,97684.38
2022-10-29T19:45:57.873Z,97679.25
2022-10-29T19:48:54.933Z,97685.47
2022-10-29T19:51:30.273Z,97671.25
2022-10-29T19:54:01.284Z,97673.25
2022-10-29T19:56:54.424Z,97636.22
2022-10-29T19:59:21.484Z,97635.72
2022-10-29T20:01:49.751Z,97657.28
2022-10-29T20:04:16.776Z,97634.72
2022-10-29T20:06:45.833Z,97632.22
2022-10-29T20:09:12.820Z,97634.03
2022-10-29T20:11:45.504Z,97630.50
2022-10-29T20:14:15.472Z,97616.66
2022-10-29T20:16:43.613Z,97616.66
2022-10-29T20:19:11.227Z,97600.63
2022-10-29T20:21:44.274Z,97588.69
2022-10-29T20:24:11.268Z,97596.31
2022-10-29T20:26:56.860Z,97596.53
2022-10-29T20:29:25.896Z,97573.75
2022-10-29T20:31:57.503Z,97582.88
2022-10-29T20:34:29.379Z,97544.28
2022-10-29T20:37:07.766Z,97563.53
2022-10-29T20:39:46.154Z,97570.97
2022-10-29T20:42:13.147Z,97540.84
2022-10-29T20:44:44.967Z,97538.63
2022-10-29T20:47:13.008Z,97539.34
2022-10-29T20:49:48.158Z,97543.88
2022-10-29T20:52:15.778Z,97532.63
2022-10-29T20:54:44.316Z,97530.41
2022-10-29T20:57:11.300Z,97527.63
2022-10-29T20:59:38.283Z,97529.22
2022-10-29T21:02:07.321Z,97503.81
2022-10-29T21:04:37.559Z,97505.13
2022-10-29T21:07:04.884Z,97483.34
2022-10-29T21:09:36.398Z,97490.19
2022-10-29T21:12:04.325Z,97497.22
2022-10-29T21:14:46.628Z,97478.66
2022-10-29T21:17:13.805Z,97489.56
2022-10-29T21:19:45.453Z,97471.81
2022-10-29T21:22:15.010Z,97465.81
2022-10-29T21:24:46.803Z,97465.00
2022-10-29T21:27:13.762Z,97474.63
2022-10-29T21:29:48.150Z,97468.72
2022-10-29T21:32:17.032Z,97467.50
2022-10-29T21:34:44.584Z,97468.22
2022-10-29T21:37:11.631Z,97458.28
2022-10-29T21:39:50.773Z,97466.13
2022-10-29T21:42:17.811Z,97445.97
2022-10-29T21:44:44.720Z,97444.25
2022-10-29T21:47:11.738Z,97433.00
2022-10-29T21:49:38.665Z,97414.91
2022-10-29T21:52:08.714Z,97434.34
2022-10-29T21:54:36.788Z,97426.78
2022-10-29T21:57:03.815Z,97422.38
2022-10-29T21:59:39.318Z,97425.41
2022-10-29T22:02:08.080Z,97433.22
2022-10-29T22:04:47.561Z,97420.09
2022-10-29T22:07:14.492Z,97446.75
2022-10-29T22:09:46.973Z,97423.19
2022-10-29T22:12:14.000Z,97430.31
2022-10-29T22:14:49.875Z,97405.44
2022-10-29T22:17:16.816Z,97420.97
2022-10-29T22:19:45.668Z,97405.94
2022-10-29T22:22:12.998Z,97391.91
2022-10-29T22:24:48.859Z,97377.88
2022-10-29T22:27:16.062Z,97412.22
2022-10-29T22:29:54.823Z,97399.22
2022-10-29T22:32:21.700Z,97384.97
2022-10-29T22:34:48.538Z,97379.13
2022-10-29T22:37:15.471Z,97403.56
2022-10-29T22:39:48.488Z,97371.53
2022-10-29T22:42:16.288Z,97380.47
2022-10-29T22:44:44.172Z,97383.97
2022-10-29T22:47:11.168Z,97383.56
2022-10-29T22:49:38.295Z,97379.44
2022-10-29T22:52:05.370Z,97367.47
2022-10-29T22:54:49.506Z,97356.66
2022-10-29T22:57:16.442Z,97367.16
2022-10-29T22:59:48.297Z,97342.31
2022-10-29T23:02:15.395Z,97354.59
2022-10-29T23:04:45.388Z,97356.69
2022-10-29T23:07:12.961Z,97354.28
2022-10-29T23:09:40.852Z,97335.44
2022-10-29T23:12:13.295Z,97349.84
2022-10-29T23:14:41.575Z,97345.38
2022-10-29T23:17:09.089Z,97348.59
2022-10-29T23:19:37.267Z,97327.84
2022-10-29T23:22:04.234Z,97336.94
2022-10-29T23:24:32.616Z,97338.72
2022-10-29T23:27:00.322Z,97346.84
2022-10-29T23:29:27.839Z,97322.28
2022-10-29T23:31:55.342Z,97333.78
2022-10-29T23:34:22.267Z,97296.72
2022-10-29T23:36:49.246Z,97320.84
2022-10-29T23:39:16.219Z,97319.56
2022-10-29T23:41:43.706Z,97322.63
2022-10-29T23:44:10.612Z,97309.34
2022-10-29T23:46:37.634Z,97342.84
2022-10-29T23:49:04.569Z,97318.50
2022-10-29T23:51:32.249Z,97301.88
2022-10-29T23:54:00.299Z,97316.75
2022-10-29T23:56:27.768Z,97309.91
2022-10-29T23:58:57.280Z,97312.78
